Terminal Aerodrome Forecast
Issued by NWS Charleston, WV

Home | Current Version | Previous Version | Text Only | Print | Product List | Glossary On
Versions: 1 2 3 4 5 6 7 8 9 10 11 12 13 14 15 16 17 18 19 20 21 22 23 24 25
000
FTUS41 KRLX 210900 AAA
TAFEKN
TAF AMD
KEKN 210900Z 2109/2206 29009G16KT P6SM BKN020
     FM211100 29012G18KT P6SM BKN035
     FM211300 27012G18KT P6SM SCT035
     FM211600 25016G27KT P6SM FEW060
     FM212300 25010G15KT P6SM BKN070=

USA.gov is the U.S. government's official web portal to all federal, state and local government web resources and services.